D/T METAR WX W/DIR W/SPE G/SPE TEMP DEWP
16/01/19 02:50 EGVO 160250Z 22012KT 9999 OVC008 08/07 Q1011 GRN SW (220°) 13.8mph 8°C 7°C
16/01/19 01:50 EGVO 160150Z 23012KT 9999 OVC007 08/07 Q1011 GRN SW (230°) 13.8mph 8°C 7°C
16/01/19 00:50 EGVO 160050Z 22014KT 9999 SCT010 BKN022 08/07 Q1012 GRN SW (220°) 16.1mph 8°C 7°C
15/01/19 23:50 EGVO 152350Z 23013KT 9999 BKN009 OVC034 08/06 Q1013 GRN SW (230°) 15.0mph 8°C 6°C
15/01/19 22:50 EGVO 152250Z 23009KT 9999 SCT008 BKN030 08/06 Q1014 GRN SW (230°) 10.4mph 8°C 6°C
15/01/19 21:50 EGVO 152150Z 22010KT 9999 BKN030 BKN140 07/06 Q1014 BLU SW (220°) 11.5mph 7°C 6°C
15/01/19 20:50 EGVO 152050Z 23010KT 9999 BKN026 BKN140 07/05 Q1015 BLU SW (230°) 11.5mph 7°C 5°C
15/01/19 19:50 EGVO 151950Z 23008KT 9999 BKN027 08/05 Q1016 BLU NOSIG SW (230°) 9.2mph 8°C 5°C
15/01/19 18:50 EGVO 151850Z 23011KT 9999 OVC028 08/05 Q1016 BLU NOSIG SW (230°) 12.7mph 8°C 5°C
15/01/19 17:50 EGVO 151750Z 23011KT 9999 OVC028 08/05 Q1016 BLU NOSIG SW (230°) 12.7mph 8°C 5°C
15/01/19 16:50 EGVO 151650Z 23009KT 9999 FEW022 OVC028 08/05 Q1017 BLU NOSIG SW (230°) 10.4mph 8°C 5°C
15/01/19 15:50 EGVO 151550Z 23011KT 9999 FEW022 OVC028 09/05 Q1017 BLU TEMPO BKN022 WHT SW (230°) 12.7mph 9°C 5°C
15/01/19 14:50 EGVO 151450Z 23010KT 9999 FEW012 BKN022 09/06 Q1018 WHT NOSIG SW (230°) 11.5mph 9°C 6°C
15/01/19 13:50 EGVO 151350Z 23010KT 9999 -DZ SCT012 OVC020 08/06 Q1018 GRN TEMPO NSW BKN020 WHT -DZ SW (230°) 11.5mph 8°C 6°C
15/01/19 12:50 EGVO 151250Z 24012KT 9999 -DZ FEW010 SCT012 BKN020 08/06 Q1019 GRN TEMPO NSW FEW010 BKN020 WHT -DZ WSW (240°) 13.8mph 8°C 6°C
15/01/19 11:50 EGVO 151150Z 24013KT 9999 -DZ SCT010 BKN020 08/06 Q1020 GRN TEMPO BKN020 WHT -DZ WSW (240°) 15.0mph 8°C 6°C
15/01/19 11:41 EGVO 151141Z 23012KT 9999 -DZ SCT011 OVC020 08/06 Q1020 GRN TEMPO BKN020 WHT -DZ SW (230°) 13.8mph 8°C 6°C
15/01/19 10:50 EGVO 151050Z 23012KT 9999 -DZ FEW010 BKN018 07/05 Q1020 WHT TEMPO NSW BKN025 BLU -DZ SW (230°) 13.8mph 7°C 5°C
15/01/19 09:50 EGVO 150950Z 22010KT 9999 -DZ FEW012 OVC026 06/05 Q1021 BLU TEMPO BKN024 WHT -DZ SW (220°) 11.5mph 6°C 5°C
15/01/19 08:50 EGVO 150850Z 23010KT 9999 FEW010 BKN025 06/04 Q1021 BLU TEMPO BKN022 WHT SW (230°) 11.5mph 6°C 4°C
15/01/19 07:50 EGVO 150750Z 23009KT 9999 OVC024 06/04 Q1021 WHT NOSIG SW (230°) 10.4mph 6°C 4°C
15/01/19 06:50 EGVO 150650Z 24010KT 9999 OVC024 05/03 Q1021 WHT WSW (240°) 11.5mph 5°C 3°C
15/01/19 05:50 EGVO 150550Z 24009KT 9999 OVC021 04/02 Q1021 WHT WSW (240°) 10.4mph 4°C 2°C
15/01/19 04:50 EGVO 150450Z 23009KT 9999 FEW025 03/01 Q1021 BLU SW (230°) 10.4mph 3°C 1°C
15/01/19 03:50 EGVO 150350Z 24008KT 9999 FEW040 03/01 Q1022 BLU WSW (240°) 9.2mph 3°C 1°C
15/01/19 02:50 EGVO 150250Z 25007KT 9999 FEW040 03/01 Q1022 BLU WSW (250°) 8.1mph 3°C 1°C
15/01/19 01:50 EGVO 150150Z 24008KT 9999 FEW040 03/01 Q1022 BLU WSW (240°) 9.2mph 3°C 1°C
15/01/19 00:50 EGVO 150050Z AUTO 26008KT 9999 NCD 04/02 Q1023 W (260°) 9.2mph 4°C 2°C
14/01/19 23:50 EGVO 142350Z AUTO 27006KT 9999 FEW039/// 04/02 Q1023 W (270°) 6.9mph 4°C 2°C
14/01/19 22:50 EGVO 142250Z 24007KT 9999 FEW045 04/01 Q1023 BLU WSW (240°) 8.1mph 4°C 1°C
14/01/19 21:50 EGVO 142150Z 25007KT 9999 FEW045 05/01 Q1023 BLU WSW (250°) 8.1mph 5°C 1°C
14/01/19 20:50 EGVO 142050Z 23006KT 9999 BKN042 05/01 Q1023 BLU SW (230°) 6.9mph 5°C 1°C
14/01/19 19:50 EGVO 141950Z 25007KT 9999 BKN045 06/00 Q1023 BLU NOSIG WSW (250°) 8.1mph 6°C 0°C
14/01/19 18:50 EGVO 141850Z 29007KT 9999 BKN045 07/00 Q1023 BLU NOSIG WNW (290°) 8.1mph 7°C 0°C
14/01/19 17:50 EGVO 141750Z 28004KT 9999 BKN043 07/01 Q1023 BLU NOSIG W (280°) 4.6mph 7°C 1°C
14/01/19 16:50 EGVO 141650Z 28006KT 9999 FEW040 BKN045 08/02 Q1023 BLU NOSIG W (280°) 6.9mph 8°C 2°C
14/01/19 15:50 EGVO 141550Z 29007KT 9999 FEW028 BKN045 08/02 Q1022 BLU NOSIG WNW (290°) 8.1mph 8°C 2°C
14/01/19 14:50 EGVO 141450Z 31009KT 9999 FEW028 BKN040 08/02 Q1022 BLU NOSIG NW (310°) 10.4mph 8°C 2°C
14/01/19 13:50 EGVO 141350Z 31010KT 9999 FEW025 BKN040 08/02 Q1021 BLU NOSIG NW (310°) 11.5mph 8°C 2°C
14/01/19 12:50 EGVO 141250Z 32009KT 9999 FEW025 BKN040 08/03 Q1021 BLU NOSIG NW (320°) 10.4mph 8°C 3°C
14/01/19 11:50 EGVO 141150Z 32012KT 9999 FEW026 BKN040 08/03 Q1021 BLU NOSIG NW (320°) 13.8mph 8°C 3°C
14/01/19 10:50 EGVO 141050Z 31011KT 9999 FEW020 SCT030 08/03 Q1021 BLU NOSIG NW (310°) 12.7mph 8°C 3°C
14/01/19 09:50 EGVO 140950Z 29008KT 9999 FEW030 07/03 Q1021 BLU NOSIG WNW (290°) 9.2mph 7°C 3°C
14/01/19 08:50 EGVO 140850Z 30009KT 9999 FEW030 06/02 Q1020 BLU NOSIG WNW (300°) 10.4mph 6°C 2°C
14/01/19 07:50 EGVO 140750Z 30005KT 9999 FEW030 05/02 Q1019 BLU NOSIG WNW (300°) 5.8mph 5°C 2°C
14/01/19 06:50 EGVO 140650Z 29007KT 9999 BKN032 06/02 Q1019 BLU NOSIG WNW (290°) 8.1mph 6°C 2°C
14/01/19 05:50 EGVO 140550Z 29007KT 9999 BKN036 06/02 Q1018 BLU WNW (290°) 8.1mph 6°C 2°C
14/01/19 04:50 EGVO 140450Z 30011KT 9999 SCT038 06/02 Q1017 BLU WNW (300°) 12.7mph 6°C 2°C
14/01/19 03:50 EGVO 140350Z 29007KT 9999 FEW038 06/02 Q1017 BLU WNW (290°) 8.1mph 6°C 2°C
14/01/19 02:50 EGVO 140250Z AUTO 31009KT 9999 NCD 07/02 Q1016 NW (310°) 10.4mph 7°C 2°C
14/01/19 01:50 EGVO 140150Z AUTO 30012KT 9999 NCD 07/02 Q1016 WNW (300°) 13.8mph 7°C 2°C
14/01/19 00:50 EGVO 140050Z 30011KT 9999 BKN045 07/02 Q1015 BLU WNW (300°) 12.7mph 7°C 2°C
13/01/19 23:50 EGVO 132350Z 33012KT 9999 SCT040 BKN048 08/02 Q1015 BLU NNW (330°) 13.8mph 8°C 2°C
13/01/19 22:50 EGVO 132250Z 31014KT 9999 SCT048 BKN250 09/02 Q1015 BLU NW (310°) 16.1mph 9°C 2°C
13/01/19 21:50 EGVO 132150Z 31010KT 9999 SCT046 BKN250 09/04 Q1014 BLU NW (310°) 11.5mph 9°C 4°C
13/01/19 20:50 EGVO 132050Z 32008KT 9999 BKN035 BKN046 10/05 Q1013 BLU NW (320°) 9.2mph 10°C 5°C
13/01/19 19:50 EGVO 131950Z AUTO 30008KT 9999 BKN036/// SCT050/// 09/07 Q1013 WNW (300°) 9.2mph 9°C 7°C
13/01/19 18:50 EGVO 131850Z AUTO 28012KT 9999 FEW033/// BKN041/// 10/07 Q1012 W (280°) 13.8mph 10°C 7°C
13/01/19 17:50 EGVO 131750Z AUTO 26015KT 9999 BKN041/// 10/08 Q1012 W (260°) 17.3mph 10°C 8°C
13/01/19 16:50 EGVO 131650Z AUTO 27014KT 9999 BKN016/// 10/08 Q1012 W (270°) 16.1mph 10°C 8°C
13/01/19 15:50 EGVO 131550Z AUTO 28016KT 9999 OVC011/// 10/08 Q1012 W (280°) 18.4mph 10°C 8°C
13/01/19 14:50 EGVO 131450Z AUTO 27020KT 9999 BKN011/// SCT018/// 10/08 Q1012 W (270°) 23.0mph 10°C 8°C
13/01/19 13:50 EGVO 131350Z AUTO 27018KT 9999 BKN013/// SCT020/// 10/07 Q1013 W (270°) 20.7mph 10°C 7°C
13/01/19 12:50 EGVO 131250Z AUTO 28017KT 9999 SCT015/// SCT022/// 10/07 Q1014 W (280°) 19.6mph 10°C 7°C
13/01/19 11:50 EGVO 131150Z AUTO 28020KT 9999 BKN015/// BKN120/// 10/07 Q1014 W (280°) 23.0mph 10°C 7°C
13/01/19 10:50 EGVO 131050Z AUTO 28020KT 9999 OVC120/// 09/07 Q1015 W (280°) 23.0mph 9°C 7°C
13/01/19 09:50 EGVO 130950Z AUTO 29019KT 9999 OVC130/// 09/06 Q1015 WNW (290°) 21.9mph 9°C 6°C
13/01/19 08:50 EGVO 130850Z AUTO 28021KT 9999 OVC100/// 09/06 Q1015 W (280°) 24.2mph 9°C 6°C
13/01/19 07:50 EGVO 130750Z AUTO 28016KT 9999 BKN120/// BKN190/// 09/07 Q1015 W (280°) 18.4mph 9°C 7°C
13/01/19 06:50 EGVO 130650Z AUTO 27017KT 9999 SCT012/// BKN150/// 09/07 Q1015 W (270°) 19.6mph 9°C 7°C
13/01/19 05:50 EGVO 130550Z AUTO 27019KT 9999 BKN010/// BKN140/// 10/08 Q1015 W (270°) 21.9mph 10°C 8°C
13/01/19 04:50 EGVO 130450Z AUTO 27017KT 9999 FEW011/// BKN140/// 09/08 Q1017 W (270°) 19.6mph 9°C 8°C
13/01/19 03:50 EGVO 130350Z AUTO 28017KT 9999 SCT011/// BKN130/// BKN170/// 09/08 Q1017 W (280°) 19.6mph 9°C 8°C
13/01/19 02:50 EGVO 130250Z AUTO 28015KT 9999 BKN130/// BKN170/// 09/07 Q1018 W (280°) 17.3mph 9°C 7°C
13/01/19 01:50 EGVO 130150Z AUTO 28013KT 9999 FEW017/// BKN130/// BKN190/// 09/07 Q1018 W (280°) 15.0mph 9°C 7°C
13/01/19 00:50 EGVO 130050Z AUTO 28014KT 9999 OVC110/// 09/07 Q1019 W (280°) 16.1mph 9°C 7°C
12/01/19 23:50 EGVO 122350Z AUTO 27011KT 9999 BKN130/// 08/06 Q1019 W (270°) 12.7mph 8°C 6°C
12/01/19 22:50 EGVO 122250Z AUTO 27014KT 9999 FEW027/// OVC140/// 08/06 Q1019 W (270°) 16.1mph 8°C 6°C
12/01/19 21:50 EGVO 122150Z AUTO 28017KT 9999 OVC100/// 09/06 Q1019 W (280°) 19.6mph 9°C 6°C
12/01/19 20:50 EGVO 122050Z AUTO 28015KT 9999 OVC080/// 08/06 Q1020 RERA W (280°) 17.3mph 8°C 6°C
12/01/19 19:50 EGVO 121950Z AUTO 28014KT 9999 -RA OVC100/// 08/05 Q1020 -RA W (280°) 16.1mph 8°C 5°C
12/01/19 18:50 EGVO 121850Z AUTO 27017KT 9999 -RADZ OVC090/// 08/06 Q1020 -RA -DZ W (270°) 19.6mph 8°C 6°C
12/01/19 17:50 EGVO 121750Z AUTO 27015KT 9999 BKN100/// 09/05 Q1020 W (270°) 17.3mph 9°C 5°C
12/01/19 16:50 EGVO 121650Z AUTO 28009KT 9999 SCT025/// BKN100/// 09/05 Q1021 RERA W (280°) 10.4mph 9°C 5°C
12/01/19 15:50 EGVO 121550Z AUTO 29012KT 9999 -RA BKN080/// SCT150/// 09/05 Q1021 -RA WNW (290°) 13.8mph 9°C 5°C
12/01/19 14:50 EGVO 121450Z AUTO 30013KT 9999 BKN130/// 09/06 Q1021 WNW (300°) 15.0mph 9°C 6°C
12/01/19 13:50 EGVO 121350Z AUTO 29009KT 9999 BKN014/// BKN034/// 10/07 Q1021 WNW (290°) 10.4mph 10°C 7°C
12/01/19 12:50 EGVO 121250Z AUTO 28009KT 9999 BKN009/// BKN016/// 09/07 Q1022 W (280°) 10.4mph 9°C 7°C
12/01/19 11:50 EGVO 121150Z AUTO 27014KT 9999 BKN009/// BKN019/// 09/07 Q1023 W (270°) 16.1mph 9°C 7°C
12/01/19 10:50 EGVO 121050Z AUTO 26014KT 9999 BKN009/// BKN031/// 09/07 Q1023 W (260°) 16.1mph 9°C 7°C
12/01/19 09:50 EGVO 120950Z AUTO 27015KT 9999 BKN011/// BKN030/// 09/07 Q1024 W (270°) 17.3mph 9°C 7°C
12/01/19 08:50 EGVO 120850Z 27016KT 9999 BKN012 09/06 Q1024 GRN W (270°) 18.4mph 9°C 6°C
12/01/19 07:50 EGVO 120750Z AUTO 26014KT 9999 BKN008/// BKN014/// 08/07 Q1024 W (260°) 16.1mph 8°C 7°C
12/01/19 06:50 EGVO 120650Z AUTO 26010KT 9999 OVC013/// 08/06 Q1025 W (260°) 11.5mph 8°C 6°C
12/01/19 05:50 EGVO 120550Z AUTO 24009KT 9999 OVC012/// 07/05 Q1025 WSW (240°) 10.4mph 7°C 5°C
12/01/19 04:50 EGVO 120450Z AUTO 24010KT 9999 BKN018/// 07/05 Q1026 WSW (240°) 11.5mph 7°C 5°C
12/01/19 03:50 EGVO 120350Z AUTO 25010KT 9999 BKN025/// 07/04 Q1027 WSW (250°) 11.5mph 7°C 4°C
12/01/19 02:50 EGVO 120250Z AUTO 25010KT 9999 OVC029/// 07/04 Q1028 WSW (250°) 11.5mph 7°C 4°C
12/01/19 01:50 EGVO 120150Z AUTO 24008KT 9999 OVC032/// 07/03 Q1028 WSW (240°) 9.2mph 7°C 3°C
12/01/19 00:50 EGVO 120050Z AUTO 24008KT 9999 OVC030/// 07/03 Q1028 WSW (240°) 9.2mph 7°C 3°C
11/01/19 23:50 EGVO 112350Z AUTO 27006KT 9999 OVC030/// 07/03 Q1029 W (270°) 6.9mph 7°C 3°C
11/01/19 22:50 EGVO 112250Z AUTO 28007KT 9999 OVC032/// 07/03 Q1030 W (280°) 8.1mph 7°C 3°C
11/01/19 21:50 EGVO 112150Z AUTO 28006KT 9999 OVC030/// 07/03 Q1030 W (280°) 6.9mph 7°C 3°C
11/01/19 20:50 EGVO 112050Z AUTO 29005KT 9999 BKN029/// 06/03 Q1030 WNW (290°) 5.8mph 6°C 3°C
11/01/19 19:50 EGVO 111950Z AUTO 31005KT 9999 OVC024/// 07/04 Q1030 NW (310°) 5.8mph 7°C 4°C
11/01/19 18:50 EGVO 111850Z AUTO 30007KT 9999 BKN023/// 06/04 Q1030 WNW (300°) 8.1mph 6°C 4°C
11/01/19 17:50 EGVO 111750Z AUTO 28004KT 9999 BKN032/// 06/04 Q1030 W (280°) 4.6mph 6°C 4°C
11/01/19 16:50 EGVO 111650Z 31005KT 9999 FEW022 SCT030 BKN250 06/04 Q1030 BLU TEMPO SCT020 WHT NW (310°) 5.8mph 6°C 4°C
11/01/19 15:50 EGVO 111550Z 31004KT 9999 FEW018 BKN250 07/04 Q1030 BLU NOSIG NW (310°) 4.6mph 7°C 4°C
11/01/19 14:50 EGVO 111450Z 33006KT 9999 FEW018 BKN250 07/05 Q1030 BLU NOSIG NNW (330°) 6.9mph 7°C 5°C
11/01/19 13:50 EGVO 111350Z 32006KT 9999 FEW014 BKN250 08/05 Q1030 BLU NOSIG NW (320°) 6.9mph 8°C 5°C
11/01/19 12:50 EGVO 111250Z 32007KT 9999 FEW025 BKN050 08/05 Q1030 BLU NOSIG NW (320°) 8.1mph 8°C 5°C
11/01/19 11:50 EGVO 111150Z 32005KT CAVOK 07/05 Q1030 BLU NOSIG NW (320°) 5.8mph 7°C 5°C
11/01/19 10:50 EGVO 111050Z 32005KT 9999 FEW022 BKN056 06/05 Q1031 BLU NOSIG NW (320°) 5.8mph 6°C 5°C
11/01/19 09:50 EGVO 110950Z 30005KT 9999 FEW022 SCT032 BKN050 06/04 Q1030 BLU NOSIG WNW (300°) 5.8mph 6°C 4°C
11/01/19 08:50 EGVO 110850Z 31005KT 9999 SCT020 BKN035 06/04 Q1030 WHT BECMG BKN035 BLU NW (310°) 5.8mph 6°C 4°C
11/01/19 07:50 EGVO 110750Z 33005KT 9999 BKN023 05/04 Q1030 WHT BECMG BKN025 BLU NNW (330°) 5.8mph 5°C 4°C
11/01/19 06:50 EGVO 110650Z 32005KT 7000 -DZ BKN018 OVC040 05/05 Q1029 WHT -DZ NW (320°) 5.8mph 5°C 5°C
11/01/19 05:50 EGVO 110550Z 34005KT 7000 HZ OVC018 06/04 Q1029 WHT HZ NNW (340°) 5.8mph 6°C 4°C
11/01/19 04:50 EGVO 110450Z 34006KT 9999 OVC015 06/04 Q1029 WHT NNW (340°) 6.9mph 6°C 4°C
11/01/19 03:50 EGVO 110350Z AUTO 32005KT 9999 BKN015/// SCT050/// 06/04 Q1029 NW (320°) 5.8mph 6°C 4°C
11/01/19 02:50 EGVO 110250Z 31006KT 9999 FEW020 OVC040 06/03 Q1029 BLU NW (310°) 6.9mph 6°C 3°C
11/01/19 01:50 EGVO 110150Z 30005KT 9999 OVC040 06/04 Q1029 BLU WNW (300°) 5.8mph 6°C 4°C
11/01/19 00:50 EGVO 110050Z AUTO 31005KT 9999 OVC044/// 06/05 Q1029 NW (310°) 5.8mph 6°C 5°C
10/01/19 23:50 EGVO 102350Z AUTO 31006KT 7000 BR SCT036/// BKN045/// 06/05 Q1029 RERA BR NW (310°) 6.9mph 6°C 5°C
10/01/19 22:50 EGVO 102250Z AUTO 31006KT 4400 BR SCT004/// BKN050/// 06/05 Q1029 BR NW (310°) 6.9mph 6°C 5°C
10/01/19 21:50 EGVO 102150Z 30005KT 4000 BR OVC004 05/05 Q1029 YLO2 BR WNW (300°) 5.8mph 5°C 5°C
10/01/19 20:50 EGVO 102050Z 30008KT 4000 BR OVC004 05/04 Q1030 YLO2 NOSIG BR WNW (300°) 9.2mph 5°C 4°C
10/01/19 19:50 EGVO 101950Z 31006KT 5000 BR OVC004 05/04 Q1029 YLO2 TEMPO OVC050 YLO1 BR NW (310°) 6.9mph 5°C 4°C
10/01/19 18:50 EGVO 101850Z 29006KT 9999 FEW004 OVC005 04/03 Q1029 YLO1 TEMPO BKN004 YLO2 WNW (290°) 6.9mph 4°C 3°C
10/01/19 17:50 EGVO 101750Z 29005KT 9999 OVC006 04/03 Q1029 YLO1 TEMPO 5000 -DZ YLO1 WNW (290°) 5.8mph 4°C 3°C
10/01/19 17:18 EGVO 101718Z 33006KT 6000 -DZ OVC006 04/02 Q1029 YLO1 TEMPO 4000 YLO1 -DZ NNW (330°) 6.9mph 4°C 2°C
10/01/19 15:50 EGVO 101550Z 31007KT 9999 OVC011 04/01 Q1029 GRN NOSIG NW (310°) 8.1mph 4°C 1°C
10/01/19 14:50 EGVO 101450Z 31008KT 9999 OVC010 04/01 Q1029 GRN NOSIG NW (310°) 9.2mph 4°C 1°C
10/01/19 13:50 EGVO 101350Z 31008KT 9999 BKN012 04/01 Q1030 GRN NOSIG NW (310°) 9.2mph 4°C 1°C
10/01/19 12:50 EGVO 101250Z 30006KT 9999 FEW020 BKN060 03/M00 Q1030 BLU TEMPO SCT020 WHT WNW (300°) 6.9mph 3°C 0°C
10/01/19 11:50 EGVO 101150Z 30005KT 9999 BKN048 BKN090 02/00 Q1030 BLU NOSIG WNW (300°) 5.8mph 2°C 0°C
10/01/19 10:50 EGVO 101050Z 27004KT 9000 HZ BKN050 BKN100 02/M00 Q1031 BLU NOSIG HZ W (270°) 4.6mph 2°C 0°C
10/01/19 09:50 EGVO 100950Z 28004KT 8000 HZ SCT100 BKN190 01/M01 Q1031 BLU NOSIG HZ W (280°) 4.6mph 1°C -1°C
10/01/19 08:50 EGVO 100850Z 26004KT 6000 HZ FEW090 BKN180 00/M01 Q1031 WHT BECMG 9999 NSW BLU HZ W (260°) 4.6mph 0°C -1°C
10/01/19 07:50 EGVO 100750Z 25004KT 7000 HZ BKN180 M00/M01 Q1031 WHT BECMG 9999 NSW BLU HZ WSW (250°) 4.6mph 0°C -1°C
10/01/19 06:50 EGVO 100650Z 27004KT 5000 BR OVC160 M01/M01 Q1030 WHT BECMG 8000 BLU BR W (270°) 4.6mph -1°C -1°C
10/01/19 05:50 EGVO 100550Z 28004KT 5000 BR BKN160 M01/M01 Q1030 WHT BR W (280°) 4.6mph -1°C -1°C
10/01/19 04:50 EGVO 100450Z 26003KT 4000 BR SKC M02/M02 Q1030 GRN BR W (260°) 3.5mph -2°C -2°C